createdAt,value
2023-03-29T00:00:09.449Z,1.60
2023-03-29T00:02:59.466Z,2.72
2023-03-29T00:05:26.910Z,2.25
2023-03-29T00:07:54.562Z,1.77
2023-03-29T00:10:24.141Z,1.73
2023-03-29T00:12:52.708Z,1.70
2023-03-29T00:15:21.050Z,2.05
2023-03-29T00:17:48.724Z,1.58
2023-03-29T00:20:16.688Z,1.70
2023-03-29T00:22:46.804Z,1.63
2023-03-29T00:25:14.376Z,2.15
2023-03-29T00:27:42.027Z,2.22
2023-03-29T00:30:10.348Z,2.47
2023-03-29T00:32:37.950Z,2.47
2023-03-29T00:35:06.651Z,2.25
2023-03-29T00:37:34.175Z,2.00
2023-03-29T00:40:01.778Z,2.00
2023-03-29T00:42:30.661Z,2.63
2023-03-29T00:45:09.946Z,2.05
2023-03-29T00:47:48.848Z,2.10
2023-03-29T00:50:26.354Z,1.90
2023-03-29T00:53:19.663Z,2.30
2023-03-29T00:55:55.842Z,2.42
2023-03-29T00:58:34.354Z,2.50
2023-03-29T01:01:08.806Z,2.25
2023-03-29T01:03:46.598Z,2.67
2023-03-29T01:06:17.306Z,2.53
2023-03-29T01:08:54.655Z,2.50
2023-03-29T01:11:29.214Z,2.20
2023-03-29T01:14:15.627Z,2.20
2023-03-29T01:16:43.379Z,3.00
2023-03-29T01:19:15.474Z,2.47
2023-03-29T01:21:52.973Z,3.38
2023-03-29T01:24:42.183Z,2.28
2023-03-29T01:27:22.912Z,2.45
2023-03-29T01:29:57.880Z,2.65
2023-03-29T01:32:35.358Z,2.05
2023-03-29T01:35:11.829Z,3.30
2023-03-29T01:38:24.511Z,1.90
2023-03-29T01:40:52.400Z,2.55
2023-03-29T01:43:26.933Z,2.50
2023-03-29T01:46:35.609Z,2.22
2023-03-29T01:49:22.590Z,2.05
2023-03-29T01:52:01.319Z,2.53
2023-03-29T01:54:31.692Z,2.63
2023-03-29T01:57:03.303Z,2.42
2023-03-29T01:59:35.041Z,2.20
2023-03-29T02:02:08.326Z,4.18
2023-03-29T02:04:39.968Z,2.83
2023-03-29T02:07:10.710Z,2.45
2023-03-29T02:09:40.053Z,3.08
2023-03-29T02:12:09.589Z,3.03
2023-03-29T02:14:37.524Z,2.53
2023-03-29T02:17:21.182Z,2.85
2023-03-29T02:19:58.155Z,3.15
2023-03-29T02:22:37.255Z,2.42
2023-03-29T02:25:09.070Z,2.80
2023-03-29T02:27:38.160Z,2.22
2023-03-29T02:30:07.712Z,2.33
2023-03-29T02:33:32.917Z,2.47
2023-03-29T02:36:10.368Z,2.75
2023-03-29T02:38:39.168Z,2.33
2023-03-29T02:41:08.378Z,2.30
2023-03-29T02:43:36.913Z,2.40
2023-03-29T02:46:06.725Z,2.55
2023-03-29T02:48:37.224Z,2.45
2023-03-29T02:51:14.452Z,2.33
2023-03-29T02:53:49.946Z,2.40
2023-03-29T02:56:21.646Z,2.05
2023-03-29T02:58:49.227Z,2.90
2023-03-29T03:01:18.471Z,1.90
2023-03-29T03:03:48.071Z,2.00
2023-03-29T03:06:15.541Z,2.25
2023-03-29T03:08:43.131Z,2.20
2023-03-29T03:11:10.426Z,2.33
2023-03-29T03:13:38.008Z,1.98
2023-03-29T03:16:05.734Z,2.40
2023-03-29T03:18:33.971Z,2.13
2023-03-29T03:21:04.627Z,2.70
2023-03-29T03:23:32.398Z,2.50
2023-03-29T03:25:59.662Z,2.60
2023-03-29T03:28:27.481Z,2.70
2023-03-29T03:30:55.579Z,2.60
2023-03-29T03:33:27.082Z,2.85
2023-03-29T03:36:10.418Z,2.20
2023-03-29T03:38:38.690Z,3.10
2023-03-29T03:41:09.671Z,2.70
2023-03-29T03:43:37.605Z,2.38
2023-03-29T03:46:05.279Z,3.65
2023-03-29T03:48:33.446Z,2.53
2023-03-29T03:51:10.818Z,2.72
2023-03-29T03:53:38.682Z,3.08
2023-03-29T03:56:15.300Z,3.03
2023-03-29T03:59:11.923Z,2.00
2023-03-29T04:02:01.977Z,3.20
2023-03-29T04:04:30.988Z,2.50
2023-03-29T04:07:04.882Z,2.63
2023-03-29T04:09:41.082Z,2.50
2023-03-29T04:12:23.876Z,2.00
2023-03-29T04:14:51.522Z,2.00
2023-03-29T04:17:21.962Z,2.67
2023-03-29T04:20:22.012Z,2.08
2023-03-29T04:22:49.294Z,2.58
2023-03-29T04:25:17.959Z,2.50
2023-03-29T04:27:49.823Z,2.50
2023-03-29T04:30:28.851Z,2.50
2023-03-29T04:33:18.899Z,2.30
2023-03-29T04:35:52.097Z,2.70
2023-03-29T04:38:23.292Z,3.30
2023-03-29T04:40:55.032Z,2.78
2023-03-29T04:46:32.597Z,3.25
2023-03-29T04:49:20.300Z,2.67
2023-03-29T04:51:51.945Z,2.90
2023-03-29T04:54:22.227Z,3.53
2023-03-29T04:57:00.738Z,3.45
2023-03-29T04:59:54.135Z,2.65
2023-03-29T05:02:48.284Z,2.97
2023-03-29T05:05:16.148Z,2.38
2023-03-29T05:07:46.126Z,2.80
2023-03-29T05:10:15.027Z,2.83
2023-03-29T05:12:43.024Z,3.15
2023-03-29T05:15:10.750Z,3.08
2023-03-29T05:17:38.401Z,2.47
2023-03-29T05:20:11.727Z,2.63
2023-03-29T05:22:40.446Z,2.85
2023-03-29T05:25:13.403Z,3.20
2023-03-29T05:27:43.391Z,2.70
2023-03-29T05:30:12.462Z,2.72
2023-03-29T05:32:48.073Z,2.42
2023-03-29T05:35:18.640Z,2.83
2023-03-29T05:37:47.422Z,3.03
2023-03-29T05:40:14.896Z,2.20
2023-03-29T05:43:04.187Z,2.28
2023-03-29T05:45:33.966Z,2.42
2023-03-29T05:48:02.047Z,2.78
2023-03-29T05:50:30.270Z,2.22
2023-03-29T05:52:58.561Z,2.58
2023-03-29T05:55:25.851Z,2.58
2023-03-29T05:57:53.630Z,2.20
2023-03-29T06:00:25.883Z,1.85
2023-03-29T06:03:14.045Z,1.85
2023-03-29T06:05:50.169Z,2.05
2023-03-29T06:08:18.509Z,1.75
2023-03-29T06:11:22.382Z,2.28
2023-03-29T06:14:16.480Z,2.55
2023-03-29T06:16:50.187Z,1.92
2023-03-29T06:19:18.823Z,1.70
2023-03-29T06:21:47.381Z,2.72
2023-03-29T06:24:20.787Z,1.80
2023-03-29T06:26:53.883Z,2.20
2023-03-29T06:29:22.213Z,2.20
2023-03-29T06:31:49.575Z,1.38
2023-03-29T06:34:49.930Z,2.20
2023-03-29T06:37:37.378Z,1.83
2023-03-29T06:40:25.267Z,1.90
2023-03-29T06:42:57.871Z,1.60
2023-03-29T06:45:31.447Z,2.10
2023-03-29T06:48:01.194Z,1.67
2023-03-29T06:50:29.324Z,1.67
2023-03-29T06:53:08.777Z,1.73
2023-03-29T06:55:36.613Z,1.95
2023-03-29T06:58:29.610Z,2.00
2023-03-29T07:01:04.157Z,1.88
2023-03-29T07:03:47.481Z,1.70
2023-03-29T07:06:20.514Z,1.60
2023-03-29T07:08:52.455Z,1.90
2023-03-29T07:11:59.574Z,1.88
2023-03-29T07:14:30.154Z,1.83
2023-03-29T07:17:01.051Z,1.42
2023-03-29T07:19:40.835Z,1.92
2023-03-29T07:22:16.500Z,1.65
2023-03-29T07:24:51.045Z,1.60
2023-03-29T07:27:19.684Z,1.70
2023-03-29T07:29:50.116Z,1.63
2023-03-29T07:32:18.795Z,1.27
2023-03-29T07:34:48.072Z,1.10
2023-03-29T07:37:34.292Z,1.10
2023-03-29T07:40:04.274Z,1.10
2023-03-29T07:42:31.915Z,1.27
2023-03-29T07:44:59.959Z,1.17
2023-03-29T07:47:33.825Z,1.48
2023-03-29T07:50:02.406Z,1.40
2023-03-29T07:52:30.467Z,1.40
2023-03-29T07:54:59.138Z,1.10
2023-03-29T07:57:44.909Z,0.80
2023-03-29T08:00:17.057Z,0.93
2023-03-29T08:02:55.941Z,1.10
2023-03-29T08:05:37.723Z,1.00
2023-03-29T08:08:12.500Z,0.77
2023-03-29T08:10:53.453Z,1.20
2023-03-29T08:13:43.656Z,1.02
2023-03-29T08:16:43.243Z,1.02
2023-03-29T08:19:14.759Z,1.20
2023-03-29T08:22:01.156Z,1.50
2023-03-29T08:24:37.466Z,1.13
2023-03-29T08:27:07.287Z,1.30
2023-03-29T08:29:35.470Z,1.13
2023-03-29T08:32:02.981Z,1.20
2023-03-29T08:34:31.891Z,1.27
2023-03-29T08:37:05.105Z,0.95
2023-03-29T08:39:41.328Z,1.25
2023-03-29T08:42:57.465Z,0.70
2023-03-29T08:45:52.875Z,1.00
2023-03-29T08:48:42.407Z,0.95
2023-03-29T08:51:27.719Z,0.90
2023-03-29T08:54:15.866Z,0.70
2023-03-29T08:57:29.281Z,0.80
2023-03-29T09:00:05.602Z,0.77
2023-03-29T09:02:37.616Z,0.50
2023-03-29T09:05:35.136Z,0.57
2023-03-29T09:08:25.656Z,0.47
2023-03-29T09:11:26.305Z,0.73
2023-03-29T09:13:59.830Z,0.85
2023-03-29T09:16:37.788Z,0.47
2023-03-29T09:19:20.888Z,0.88
2023-03-29T09:21:59.323Z,1.15
2023-03-29T09:24:39.100Z,0.82
2023-03-29T09:27:26.744Z,1.02
2023-03-29T09:30:14.557Z,0.77
2023-03-29T09:33:04.532Z,1.08
2023-03-29T09:35:55.159Z,0.93
2023-03-29T09:38:23.039Z,0.70
2023-03-29T09:40:58.030Z,0.70
2023-03-29T09:43:33.472Z,0.60
2023-03-29T09:46:11.646Z,0.70
2023-03-29T09:48:41.403Z,1.00
2023-03-29T09:51:12.208Z,0.85
2023-03-29T09:53:40.346Z,0.77
2023-03-29T09:56:19.111Z,0.95
2023-03-29T09:58:50.072Z,0.90
2023-03-29T10:01:19.379Z,0.40
2023-03-29T10:03:52.391Z,1.00
2023-03-29T10:06:23.915Z,0.77
2023-03-29T10:08:57.922Z,0.82
2023-03-29T10:11:41.157Z,0.63
2023-03-29T10:14:54.231Z,0.93
2023-03-29T10:17:24.509Z,0.88
2023-03-29T10:19:57.155Z,1.02
2023-03-29T10:22:27.832Z,0.90
2023-03-29T10:24:57.344Z,0.85
2023-03-29T10:27:28.191Z,0.77
2023-03-29T10:29:58.531Z,0.82
2023-03-29T10:32:33.807Z,0.80
2023-03-29T10:35:34.126Z,0.60
2023-03-29T10:38:07.861Z,1.13
2023-03-29T10:40:41.512Z,0.70
2023-03-29T10:43:14.586Z,1.02
2023-03-29T10:45:42.563Z,0.88
2023-03-29T10:48:15.385Z,0.90
2023-03-29T10:50:42.996Z,0.57
2023-03-29T10:53:32.700Z,0.98
2023-03-29T10:56:24.586Z,0.95
2023-03-29T10:59:01.316Z,0.85
2023-03-29T11:01:31.749Z,1.00
2023-03-29T11:04:34.504Z,0.80
2023-03-29T11:07:13.650Z,0.80
2023-03-29T11:09:44.221Z,0.73
2023-03-29T11:12:34.600Z,1.50
2023-03-29T11:15:38.908Z,0.82
2023-03-29T11:18:18.047Z,1.00
2023-03-29T11:20:53.031Z,1.60
2023-03-29T11:23:38.656Z,0.85
2023-03-29T11:26:42.066Z,0.60
2023-03-29T11:29:28.233Z,0.88
2023-03-29T11:32:09.236Z,0.70
2023-03-29T11:34:49.073Z,0.68
2023-03-29T11:37:43.159Z,0.38
2023-03-29T11:40:36.729Z,0.77
2023-03-29T11:43:15.382Z,0.60
2023-03-29T11:45:49.238Z,1.00
2023-03-29T11:48:22.436Z,0.60
2023-03-29T11:51:02.227Z,0.82
2023-03-29T11:53:42.094Z,0.80
2023-03-29T11:56:15.808Z,0.82
2023-03-29T11:58:50.728Z,0.40
2023-03-29T12:01:31.751Z,0.50
2023-03-29T12:04:11.178Z,0.50
2023-03-29T12:06:51.030Z,0.65
2023-03-29T12:09:30.931Z,0.43
2023-03-29T12:12:15.177Z,0.93
2023-03-29T12:14:53.103Z,0.90
2023-03-29T12:17:28.282Z,0.82
2023-03-29T12:20:01.117Z,0.55
2023-03-29T12:22:28.932Z,0.75
2023-03-29T12:24:57.763Z,0.70
2023-03-29T12:27:53.942Z,0.68
2023-03-29T12:30:50.817Z,0.88
2023-03-29T12:33:26.898Z,0.90
2023-03-29T12:36:19.120Z,1.27
2023-03-29T12:39:17.186Z,0.98
2023-03-29T12:42:43.682Z,1.40
2023-03-29T12:45:51.017Z,1.42
2023-03-29T12:48:26.766Z,1.17
2023-03-29T12:51:02.787Z,1.30
2023-03-29T12:54:03.400Z,1.30
2023-03-29T12:57:00.514Z,1.50
2023-03-29T12:59:37.708Z,1.20
2023-03-29T13:02:14.359Z,1.25
2023-03-29T13:04:55.193Z,1.27
2023-03-29T13:07:22.756Z,1.05
2023-03-29T13:09:55.537Z,1.10
2023-03-29T13:12:34.849Z,1.10
2023-03-29T13:15:27.387Z,1.20
2023-03-29T13:20:46.050Z,0.98
2023-03-29T13:23:34.792Z,1.02
2023-03-29T13:26:02.551Z,1.10
2023-03-29T13:29:25.956Z,1.20
2023-03-29T13:32:16.239Z,1.58
2023-03-29T13:35:15.760Z,1.20
2023-03-29T13:38:11.255Z,1.20
2023-03-29T13:40:43.346Z,1.00
2023-03-29T13:43:19.920Z,1.30
2023-03-29T13:45:59.459Z,1.30
2023-03-29T13:49:05.549Z,1.52
2023-03-29T13:51:47.765Z,1.15
2023-03-29T13:54:29.706Z,1.38
2023-03-29T13:57:10.087Z,1.80
2023-03-29T13:59:41.247Z,1.45
2023-03-29T14:02:32.606Z,1.65
2023-03-29T14:05:02.289Z,1.60
2023-03-29T14:07:33.668Z,1.70
2023-03-29T14:10:02.256Z,1.52
2023-03-29T14:12:38.856Z,1.38
2023-03-29T14:15:09.755Z,1.38
2023-03-29T14:17:37.605Z,1.48
2023-03-29T14:20:09.216Z,1.70
2023-03-29T14:22:37.786Z,1.55
2023-03-29T14:25:15.627Z,2.20
2023-03-29T14:27:43.250Z,1.95
2023-03-29T14:30:23.686Z,1.60
2023-03-29T14:32:51.557Z,1.83
2023-03-29T14:35:20.972Z,2.08
2023-03-29T14:37:48.802Z,2.47
2023-03-29T14:40:19.957Z,2.00
2023-03-29T14:42:48.801Z,1.88
2023-03-29T14:45:17.996Z,1.83
2023-03-29T14:47:46.914Z,2.08
2023-03-29T14:50:32.936Z,1.88
2023-03-29T14:53:01.801Z,2.47
2023-03-29T14:55:31.006Z,2.25
2023-03-29T14:58:00.322Z,2.35
2023-03-29T15:00:40.090Z,2.33
2023-03-29T15:03:14.275Z,2.33
2023-03-29T15:05:47.693Z,2.22
2023-03-29T15:08:35.868Z,2.15
2023-03-29T15:11:04.298Z,2.55
2023-03-29T15:13:31.727Z,2.58
2023-03-29T15:16:04.401Z,2.13
2023-03-29T15:18:39.611Z,1.83
2023-03-29T15:21:09.152Z,1.90
2023-03-29T15:23:51.993Z,2.38
2023-03-29T15:26:26.434Z,2.25
2023-03-29T15:29:03.072Z,2.50
2023-03-29T15:31:36.895Z,2.17
2023-03-29T15:34:09.101Z,2.67
2023-03-29T15:36:43.535Z,2.20
2023-03-29T15:39:15.535Z,2.58
2023-03-29T15:41:44.903Z,2.10
2023-03-29T15:44:15.419Z,2.15
2023-03-29T15:46:43.559Z,2.88
2023-03-29T15:49:12.437Z,2.30
2023-03-29T15:51:40.938Z,2.30
2023-03-29T15:54:09.281Z,1.90
2023-03-29T15:56:46.788Z,2.00
2023-03-29T15:59:14.190Z,2.50
2023-03-29T16:01:41.979Z,2.45
2023-03-29T16:04:20.480Z,2.25
2023-03-29T16:06:52.844Z,2.85
2023-03-29T16:09:21.486Z,2.95
2023-03-29T16:11:49.738Z,2.35
2023-03-29T16:14:27.310Z,2.50
2023-03-29T16:16:55.737Z,2.13
2023-03-29T16:19:24.171Z,2.30
2023-03-29T16:21:52.983Z,2.22
2023-03-29T16:24:24.225Z,2.88
2023-03-29T16:26:55.334Z,2.20
2023-03-29T16:29:24.681Z,2.40
2023-03-29T16:31:53.565Z,1.90
2023-03-29T16:34:22.880Z,2.13
2023-03-29T16:36:51.213Z,2.33
2023-03-29T16:39:18.741Z,1.95
2023-03-29T16:41:48.942Z,2.30
2023-03-29T16:44:21.679Z,2.08
2023-03-29T16:46:54.143Z,2.00
2023-03-29T16:49:21.783Z,1.80
2023-03-29T16:51:49.340Z,2.30
2023-03-29T16:54:19.491Z,2.60
2023-03-29T16:56:47.357Z,2.83
2023-03-29T16:59:15.428Z,2.70
2023-03-29T17:01:43.263Z,2.67
2023-03-29T17:04:10.593Z,3.75
2023-03-29T17:06:38.158Z,3.05
2023-03-29T17:09:06.204Z,2.28
2023-03-29T17:11:34.651Z,2.90
2023-03-29T17:14:02.009Z,3.45
2023-03-29T17:16:29.656Z,2.83
2023-03-29T17:19:00.645Z,3.10
2023-03-29T17:21:29.382Z,3.42
2023-03-29T17:23:56.980Z,3.05
2023-03-29T17:26:24.211Z,2.58
2023-03-29T17:28:51.919Z,3.08
2023-03-29T17:31:19.641Z,3.85
2023-03-29T17:33:47.656Z,3.08
2023-03-29T17:36:15.123Z,3.97
2023-03-29T17:38:43.147Z,3.25
2023-03-29T17:41:11.193Z,3.35
2023-03-29T17:43:38.758Z,3.55
2023-03-29T17:46:06.556Z,4.20
2023-03-29T17:48:34.349Z,3.97
2023-03-29T17:51:01.595Z,3.78
2023-03-29T17:53:29.165Z,4.22
2023-03-29T17:55:56.395Z,4.55
2023-03-29T17:58:23.937Z,4.85
2023-03-29T18:00:51.321Z,4.80
2023-03-29T18:03:19.012Z,5.20
2023-03-29T18:05:46.562Z,5.15
2023-03-29T18:08:15.143Z,5.07
2023-03-29T18:10:43.376Z,5.10
2023-03-29T18:13:13.982Z,6.30
2023-03-29T18:15:41.843Z,6.60
2023-03-29T18:18:09.477Z,6.22
2023-03-29T18:20:37.086Z,5.63
2023-03-29T18:23:04.667Z,5.70
2023-03-29T18:25:31.996Z,5.82
2023-03-29T18:27:59.508Z,7.65
2023-03-29T18:30:26.978Z,7.50
2023-03-29T18:32:54.657Z,6.95
2023-03-29T18:35:22.600Z,7.22
2023-03-29T18:37:51.587Z,5.97
2023-03-29T18:40:24.884Z,5.90
2023-03-29T18:42:52.568Z,5.90
2023-03-29T18:45:21.483Z,5.40
2023-03-29T18:47:50.944Z,6.22
2023-03-29T18:50:18.291Z,5.78
2023-03-29T18:52:45.910Z,5.60
2023-03-29T18:55:13.133Z,6.32
2023-03-29T18:57:41.038Z,6.20
2023-03-29T19:00:14.563Z,6.32
2023-03-29T19:02:42.204Z,6.93
2023-03-29T19:05:10.826Z,6.18
2023-03-29T19:07:38.473Z,6.97
2023-03-29T19:10:07.047Z,6.25
2023-03-29T19:12:35.366Z,7.50
2023-03-29T19:15:02.819Z,6.30
2023-03-29T19:17:30.927Z,7.90
2023-03-29T19:19:58.439Z,7.35
2023-03-29T19:22:26.642Z,6.70
2023-03-29T19:24:53.897Z,6.68
2023-03-29T19:27:21.639Z,7.00
2023-03-29T19:29:49.343Z,7.35
2023-03-29T19:32:16.883Z,7.07
2023-03-29T19:34:44.278Z,7.05
2023-03-29T19:37:11.832Z,7.05
2023-03-29T19:39:41.460Z,6.57
2023-03-29T19:42:10.306Z,7.25
2023-03-29T19:44:38.404Z,6.85
2023-03-29T19:47:06.628Z,7.40
2023-03-29T19:49:36.740Z,7.22
2023-03-29T19:52:04.435Z,7.20
2023-03-29T19:54:32.247Z,7.55
2023-03-29T19:57:00.064Z,7.40
2023-03-29T19:59:27.895Z,6.85
2023-03-29T20:01:56.976Z,6.78
2023-03-29T20:04:24.713Z,6.93
2023-03-29T20:06:52.574Z,5.90
2023-03-29T20:09:20.210Z,6.95
2023-03-29T20:11:47.788Z,6.78
2023-03-29T20:14:15.080Z,6.80
2023-03-29T20:16:43.593Z,7.50
2023-03-29T20:19:10.979Z,7.25
2023-03-29T20:21:38.526Z,6.97
2023-03-29T20:24:06.180Z,6.95
2023-03-29T20:26:33.692Z,7.88
2023-03-29T20:29:01.945Z,7.60
2023-03-29T20:31:30.116Z,7.43
2023-03-29T20:33:57.722Z,7.45
2023-03-29T20:36:26.750Z,6.65
2023-03-29T20:38:56.339Z,7.13
2023-03-29T20:41:23.980Z,7.82
2023-03-29T20:43:58.391Z,6.68
2023-03-29T20:46:33.829Z,8.32
2023-03-29T20:49:07.456Z,7.85
2023-03-29T20:51:36.345Z,6.55
2023-03-29T20:54:07.753Z,7.45
2023-03-29T20:56:39.033Z,6.78
2023-03-29T20:59:10.668Z,7.53
2023-03-29T21:04:10.954Z,7.25
2023-03-29T21:06:41.738Z,6.10
2023-03-29T21:09:09.048Z,8.30
2023-03-29T21:11:36.636Z,7.20
2023-03-29T21:14:04.237Z,6.90
2023-03-29T21:16:32.006Z,6.93
2023-03-29T21:18:59.286Z,5.93
2023-03-29T21:21:26.949Z,6.95
2023-03-29T21:23:54.144Z,7.22
2023-03-29T21:26:22.837Z,6.97
2023-03-29T21:28:50.446Z,7.07
2023-03-29T21:31:18.002Z,7.18
2023-03-29T21:33:45.274Z,6.55
2023-03-29T21:36:12.877Z,6.32
2023-03-29T21:38:40.481Z,6.82
2023-03-29T21:41:12.136Z,7.03
2023-03-29T21:43:40.468Z,7.10
2023-03-29T21:46:08.821Z,6.90
2023-03-29T21:48:36.435Z,6.47
2023-03-29T21:51:05.083Z,6.47
2023-03-29T21:53:32.612Z,6.63
2023-03-29T21:56:00.336Z,6.68
2023-03-29T21:58:27.724Z,6.47
2023-03-29T22:00:56.406Z,6.53
2023-03-29T22:03:23.904Z,6.18
2023-03-29T22:06:03.205Z,6.38
2023-03-29T22:08:31.107Z,6.55
2023-03-29T22:11:08.237Z,6.40
2023-03-29T22:13:36.075Z,6.47
2023-03-29T22:16:04.763Z,6.43
2023-03-29T22:18:42.468Z,6.38
2023-03-29T22:21:15.884Z,6.07
2023-03-29T22:23:45.912Z,6.72
2023-03-29T22:26:15.745Z,6.68
2023-03-29T22:28:43.358Z,5.53
2023-03-29T22:31:16.554Z,7.07
2023-03-29T22:33:44.469Z,5.93
2023-03-29T22:36:15.948Z,6.10
2023-03-29T22:38:44.266Z,6.95
2023-03-29T22:41:12.392Z,6.97
2023-03-29T22:43:39.796Z,6.70
2023-03-29T22:46:10.735Z,6.65
2023-03-29T22:48:38.583Z,5.90
2023-03-29T22:51:06.859Z,6.10
2023-03-29T22:53:34.270Z,6.65
2023-03-29T22:56:01.897Z,6.65
2023-03-29T22:58:31.889Z,6.53
2023-03-29T23:00:59.585Z,6.32
2023-03-29T23:03:26.906Z,5.65
2023-03-29T23:05:56.572Z,5.88
2023-03-29T23:08:25.271Z,7.13
2023-03-29T23:10:52.960Z,6.50
2023-03-29T23:13:24.378Z,6.90
2023-03-29T23:15:54.736Z,6.47
2023-03-29T23:18:23.686Z,5.82
2023-03-29T23:20:54.743Z,6.85
2023-03-29T23:23:23.474Z,6.32
2023-03-29T23:25:53.045Z,6.95
2023-03-29T23:28:30.733Z,5.75
2023-03-29T23:31:01.063Z,5.80
2023-03-29T23:33:35.296Z,6.72
2023-03-29T23:36:05.318Z,6.70
2023-03-29T23:38:34.466Z,6.43
2023-03-29T23:41:04.888Z,6.97
2023-03-29T23:43:35.081Z,5.70
2023-03-29T23:46:08.667Z,6.30
2023-03-29T23:48:36.762Z,6.15
2023-03-29T23:51:05.764Z,5.82
2023-03-29T23:53:33.188Z,6.03
2023-03-29T23:56:04.093Z,6.55
2023-03-29T23:58:33.968Z,6.45
